Time;durP1;ratioP1;P1;durP2;ratioP2;P2;SDS_P1;SDS_P2;PMS_P1;PMS_P2;Temp;Humidity;BMP_temperature;BMP_pressure;BME280_temperature;BME280_humidity;BME280_pressure;Samples;Min_cycle;Max_cycle;Signal;HPM_P1;HPM_P2
2022/10/24 00:06:05;;;;;;;81.43;36.20;;;;;;;16.20;100.00;100941.28;4922398;29;20068;-88
2022/10/24 00:08:32;;;;;;;79.90;36.00;;;;;;;16.30;100.00;100936.47;4914817;29;20131;-90
2022/10/24 00:10:57;;;;;;;77.85;38.00;;;;;;;16.47;100.00;100921.84;4903439;29;20111;-89
2022/10/24 00:13:23;;;;;;;81.65;36.33;;;;;;;16.63;100.00;100920.78;4903238;29;20122;-88
2022/10/24 00:15:49;;;;;;;77.78;38.03;;;;;;;16.66;100.00;100923.91;4902607;29;20036;-90
2022/10/24 00:18:15;;;;;;;77.95;37.00;;;;;;;16.82;100.00;100934.34;4903035;29;20466;-89
2022/10/24 00:20:41;;;;;;;74.60;36.38;;;;;;;16.85;100.00;100930.44;4904063;29;20132;-88
2022/10/24 00:23:07;;;;;;;76.45;38.75;;;;;;;16.76;100.00;100931.59;4903824;29;20033;-88
2022/10/24 00:25:35;;;;;;;80.18;37.72;;;;;;;16.67;100.00;100928.22;4904190;29;20071;-89
2022/10/24 00:28:01;;;;;;;72.05;35.78;;;;;;;16.80;100.00;100941.75;4902097;29;20447;-88
2022/10/24 00:30:27;;;;;;;74.32;37.53;;;;;;;16.82;100.00;100941.53;4901348;29;20036;-89
2022/10/24 00:32:53;;;;;;;79.80;38.47;;;;;;;16.73;100.00;100946.22;4902740;29;20044;-88
2022/10/24 00:35:19;;;;;;;75.65;39.33;;;;;;;16.73;100.00;100940.84;4884298;29;20042;-90
2022/10/24 00:37:45;;;;;;;80.72;39.13;;;;;;;16.78;100.00;100950.97;4901637;29;20127;-89
2022/10/24 00:40:14;;;;;;;77.38;38.75;;;;;;;16.88;100.00;100940.75;4900862;29;20055;-90
2022/10/24 00:42:40;;;;;;;87.22;39.35;;;;;;;16.93;100.00;100938.34;4901702;29;20040;-88
2022/10/24 00:45:45;;;;;;;82.03;39.13;;;;;;;16.89;100.00;100937.91;4901412;29;20386;-87
2022/10/24 00:48:42;;;;;;;82.88;40.30;;;;;;;16.95;100.00;100939.81;4884294;29;20047;-88
2022/10/24 00:51:34;;;;;;;90.07;41.30;;;;;;;16.87;100.00;100945.28;4900962;29;20044;-86
2022/10/24 00:54:03;;;;;;;87.10;41.03;;;;;;;16.82;100.00;100923.63;4899385;29;20505;-87
2022/10/24 00:56:42;;;;;;;82.22;39.80;;;;;;;16.94;100.00;100919.41;4899384;29;20032;-88
2022/10/24 00:59:09;;;;;;;81.28;39.65;;;;;;;16.81;100.00;100913.94;4902203;29;20032;-90
2022/10/24 01:01:41;;;;;;;85.53;40.85;;;;;;;16.81;100.00;100905.91;4901763;29;20387;-87
2022/10/24 01:04:08;;;;;;;93.30;40.90;;;;;;;16.85;100.00;100891.13;4899550;29;20079;-89
2022/10/24 01:06:37;;;;;;;90.25;41.20;;;;;;;16.88;100.00;100882.69;4898707;29;20506;-87
2022/10/24 01:09:27;;;;;;;94.03;42.22;;;;;;;16.90;100.00;100886.00;4898789;29;20092;-89
2022/10/24 01:11:58;;;;;;;84.40;39.05;;;;;;;16.96;100.00;100895.94;4899803;29;20040;-87
2022/10/24 01:14:45;;;;;;;93.22;41.25;;;;;;;17.00;100.00;100907.91;4899402;29;20063;-89
2022/10/24 01:17:16;;;;;;;81.90;38.95;;;;;;;17.08;100.00;100892.72;4899828;29;20045;-89
2022/10/24 01:20:04;;;;;;;83.10;39.75;;;;;;;16.93;100.00;100884.81;4898897;29;20052;-90
2022/10/24 01:22:39;;;;;;;90.05;39.88;;;;;;;16.74;100.00;100880.09;4899863;29;20036;-88
2022/10/24 01:25:14;;;;;;;103.88;43.10;;;;;;;16.73;100.00;100879.28;4899567;29;20037;-89
2022/10/24 01:28:02;;;;;;;91.68;39.53;;;;;;;16.81;100.00;100879.13;4900108;29;20096;-88
2022/10/24 01:30:37;;;;;;;96.95;41.58;;;;;;;16.68;100.00;100879.03;4900332;29;20041;-89
2022/10/24 01:33:17;;;;;;;94.05;42.08;;;;;;;16.76;100.00;100870.88;4899173;29;20052;-87
2022/10/24 01:35:55;;;;;;;101.53;44.45;;;;;;;16.58;100.00;100891.91;4899474;29;20045;-89
2022/10/24 01:38:33;;;;;;;96.97;44.40;;;;;;;16.51;100.00;100896.34;4909590;29;20096;-86
2022/10/24 01:41:11;;;;;;;105.93;44.00;;;;;;;16.57;100.00;100895.63;4907990;29;20427;-88
2022/10/24 01:43:47;;;;;;;110.80;45.40;;;;;;;16.46;100.00;100893.41;4904049;29;20132;-88
2022/10/24 01:46:18;;;;;;;126.03;45.53;;;;;;;16.42;100.00;100881.44;4903750;29;20127;-89
2022/10/24 01:48:48;;;;;;;113.13;45.97;;;;;;;16.66;100.00;100880.25;4901904;29;20047;-86
2022/10/24 01:51:18;;;;;;;115.38;44.47;;;;;;;16.58;100.00;100881.19;4903635;29;20032;-88
2022/10/24 01:53:45;;;;;;;123.90;46.83;;;;;;;16.70;100.00;100868.97;4903245;29;20069;-88
2022/10/24 01:56:10;;;;;;;109.57;43.92;;;;;;;16.71;100.00;100869.78;4903102;29;20510;-87
2022/10/24 01:58:36;;;;;;;115.90;46.45;;;;;;;16.47;100.00;100873.69;4902524;29;20076;-89
2022/10/24 02:01:08;;;;;;;113.95;45.92;;;;;;;16.41;100.00;100869.91;4902973;29;20041;-87
2022/10/24 02:03:42;;;;;;;141.05;46.42;;;;;;;16.44;100.00;100860.66;4902423;29;20407;-89
2022/10/24 02:06:33;;;;;;;140.38;47.75;;;;;;;16.41;100.00;100858.38;4902748;29;20046;-91
2022/10/24 02:09:06;;;;;;;134.27;50.28;;;;;;;16.39;100.00;100844.38;4902689;29;20486;-88
2022/10/24 02:11:34;;;;;;;150.93;50.67;;;;;;;16.28;100.00;100840.34;4902425;29;20040;-88
2022/10/24 02:14:08;;;;;;;155.90;50.97;;;;;;;16.44;100.00;100840.09;4902373;29;20105;-88
2022/10/24 02:16:34;;;;;;;185.73;53.42;;;;;;;16.39;100.00;100847.88;4902133;29;20048;-88
2022/10/24 02:18:59;;;;;;;160.95;52.55;;;;;;;16.42;100.00;100846.66;4900844;29;20036;-89
2022/10/24 02:21:51;;;;;;;164.82;54.30;;;;;;;16.45;100.00;100832.88;4903035;29;20036;-88
2022/10/24 02:24:31;;;;;;;157.07;54.73;;;;;;;16.42;100.00;100836.78;4902088;29;20064;-90
2022/10/24 02:27:02;;;;;;;163.60;54.53;;;;;;;16.39;100.00;100831.81;4902624;29;20064;-89
2022/10/24 02:29:49;;;;;;;157.45;54.95;;;;;;;16.35;100.00;100832.38;4901999;29;20040;-90
2022/10/24 02:32:24;;;;;;;177.40;54.88;;;;;;;16.33;100.00;100829.91;4902247;29;20032;-88
2022/10/24 02:34:50;;;;;;;148.05;53.33;;;;;;;16.33;100.00;100829.91;4902118;29;20028;-87
2022/10/24 02:37:17;;;;;;;167.18;53.83;;;;;;;16.38;100.00;100824.81;4902011;29;20068;-86
2022/10/24 02:39:46;;;;;;;149.93;51.85;;;;;;;16.31;100.00;100831.09;4901441;29;20070;-90
2022/10/24 02:42:13;;;;;;;171.75;56.85;;;;;;;16.34;100.00;100833.44;4902366;29;20049;-87
2022/10/24 02:44:41;;;;;;;170.18;52.80;;;;;;;16.39;100.00;100839.00;4900904;29;20044;-87
2022/10/24 02:47:10;;;;;;;163.73;55.55;;;;;;;16.41;100.00;100826.25;4904194;29;20119;-85
2022/10/24 02:49:36;;;;;;;154.35;54.35;;;;;;;16.36;100.00;100834.06;4900277;29;20041;-88
2022/10/24 02:52:02;;;;;;;170.55;51.03;;;;;;;16.43;100.00;100818.88;4904797;29;20036;-88
2022/10/24 02:54:28;;;;;;;195.20;54.05;;;;;;;16.34;100.00;100820.06;4919485;29;20073;-87
2022/10/24 02:56:59;;;;;;;208.32;52.58;;;;;;;16.33;100.00;100807.69;4923441;29;20029;-88
2022/10/24 02:59:25;;;;;;;313.77;56.88;;;;;;;16.26;100.00;100810.31;4923066;29;20100;-88
2022/10/24 03:01:50;;;;;;;254.88;55.70;;;;;;;16.29;100.00;100822.47;4905561;29;20168;-88
2022/10/24 03:04:19;;;;;;;272.45;59.10;;;;;;;16.29;100.00;100814.44;4906260;29;20041;-87
2022/10/24 03:06:44;;;;;;;209.27;57.35;;;;;;;16.38;100.00;100821.31;4901542;29;20033;-88
2022/10/24 03:09:10;;;;;;;183.73;57.47;;;;;;;16.61;100.00;100829.13;4902656;29;20043;-88
2022/10/24 03:11:35;;;;;;;181.90;56.90;;;;;;;16.55;100.00;100830.75;4901923;29;20032;-88
2022/10/24 03:14:01;;;;;;;219.00;56.95;;;;;;;16.50;100.00;100830.47;4901801;29;20135;-87
2022/10/24 03:16:29;;;;;;;164.80;56.47;;;;;;;-142.57;100.00;61215.63;4902663;29;20036;-90
2022/10/24 03:18:55;;;;;;;211.23;56.80;;;;;;;-142.57;100.00;61215.63;4902581;29;20041;-87
2022/10/24 03:21:21;;;;;;;188.55;61.53;;;;;;;-142.57;100.00;61215.63;4910067;29;20077;-88
2022/10/24 03:23:47;;;;;;;275.83;58.20;;;;;;;-142.57;100.00;61215.63;4900826;29;20502;-88
2022/10/24 03:26:12;;;;;;;164.95;55.80;;;;;;;-142.57;100.00;61215.63;4903356;29;20075;-89
2022/10/24 03:28:38;;;;;;;224.38;59.70;;;;;;;-142.57;100.00;61215.63;4903328;29;20036;-87
2022/10/24 03:31:05;;;;;;;278.75;57.05;;;;;;;-142.57;100.00;61215.63;4909334;29;20040;-89
2022/10/24 03:33:30;;;;;;;205.90;55.13;;;;;;;-142.57;100.00;61215.63;4890418;29;20040;-87
2022/10/24 03:35:58;;;;;;;224.88;59.03;;;;;;;-142.57;100.00;61215.63;4925039;29;20034;-88
2022/10/24 03:38:25;;;;;;;248.70;60.00;;;;;;;-142.57;100.00;61215.63;4922165;29;20043;-88
2022/10/24 03:40:51;;;;;;;275.83;59.63;;;;;;;-142.57;100.00;61215.63;4921589;29;20043;-92
2022/10/24 03:43:17;;;;;;;586.40;69.22;;;;;;;-142.57;100.00;61215.63;4920395;29;20120;-90
2022/10/24 03:45:43;;;;;;;399.98;68.07;;;;;;;-142.57;100.00;61215.63;4926920;29;20032;-87
2022/10/24 03:48:10;;;;;;;521.60;72.00;;;;;;;-142.57;100.00;61215.63;4924804;29;20039;-90
2022/10/24 03:50:36;;;;;;;266.48;58.35;;;;;;;-142.57;100.00;61215.63;4925440;29;20040;-88
2022/10/24 03:53:08;;;;;;;385.58;64.57;;;;;;;-142.57;100.00;61215.63;4908564;29;20508;-88
2022/10/24 03:55:34;;;;;;;688.50;74.50;;;;;;;-142.57;100.00;61215.63;4923968;29;20051;-89
2022/10/24 03:58:02;;;;;;;354.90;66.18;;;;;;;-142.57;100.00;61215.63;4924127;29;20203;-90
2022/10/24 04:00:28;;;;;;;526.72;72.22;;;;;;;-142.57;100.00;61215.63;4926077;29;20111;-89
2022/10/24 04:02:54;;;;;;;518.40;72.45;;;;;;;-142.57;100.00;61215.63;4920601;29;20492;-87
2022/10/24 04:05:20;;;;;;;437.80;70.60;;;;;;;-142.57;100.00;61215.63;4923101;29;20050;-86
2022/10/24 04:07:45;;;;;;;377.05;68.70;;;;;;;-142.57;100.00;61215.63;4924376;29;20032;-88
2022/10/24 04:10:11;;;;;;;550.22;75.60;;;;;;;-142.57;100.00;61215.63;4924748;29;20536;-87
2022/10/24 04:12:39;;;;;;;484.17;71.40;;;;;;;-142.57;100.00;61215.63;4923353;29;20107;-89
2022/10/24 04:15:05;;;;;;;944.22;86.38;;;;;;;-142.57;100.00;61215.63;4922222;29;20044;-87
2022/10/24 04:17:34;;;;;;;920.03;81.40;;;;;;;-142.57;100.00;61215.63;4921991;29;20036;-89
2022/10/24 04:19:59;;;;;;;923.33;87.60;;;;;;;-142.57;100.00;61215.63;4920091;29;20122;-89
2022/10/24 04:22:25;;;;;;;275.27;65.72;;;;;;;-142.57;100.00;61215.63;4925639;29;20107;-87
2022/10/24 04:24:51;;;;;;;785.50;82.28;;;;;;;-142.57;100.00;61215.63;4926827;29;20130;-91
2022/10/24 04:27:17;;;;;;;968.88;87.70;;;;;;;-142.57;100.00;61215.63;4881010;29;20036;-88
2022/10/24 04:29:45;;;;;;;712.70;75.60;;;;;;;-142.57;100.00;61215.63;4902813;29;20123;-91
2022/10/24 04:32:11;;;;;;;272.67;58.67;;;;;;;-142.57;100.00;61215.63;4905851;29;20577;-91
2022/10/24 04:34:37;;;;;;;493.05;62.28;;;;;;;-142.57;100.00;61215.63;4906449;29;20044;-90
2022/10/24 04:37:02;;;;;;;430.73;62.20;;;;;;;-142.57;100.00;61215.63;4905879;29;20037;-90
2022/10/24 04:39:37;;;;;;;540.42;65.20;;;;;;;-142.57;100.00;61215.63;4910251;29;20111;-89
2022/10/24 04:42:03;;;;;;;495.20;62.83;;;;;;;-142.57;100.00;61215.63;4903329;29;20128;-91
2022/10/24 04:44:28;;;;;;;511.40;62.67;;;;;;;-142.57;100.00;61215.63;4901056;29;20067;-89
2022/10/24 04:46:54;;;;;;;377.65;57.20;;;;;;;-142.57;100.00;61215.63;4901936;29;20635;-88
2022/10/24 04:49:20;;;;;;;559.10;65.70;;;;;;;-142.57;100.00;61215.63;4901466;29;20165;-91
2022/10/24 04:51:45;;;;;;;386.20;58.47;;;;;;;-142.57;100.00;61215.63;4907194;29;20041;-83
2022/10/24 04:54:11;;;;;;;614.03;69.53;;;;;;;-142.57;100.00;61215.63;4898537;29;20478;-87
2022/10/24 04:56:36;;;;;;;389.20;61.47;;;;;;;-142.57;100.00;61215.63;4882264;29;20067;-87
2022/10/24 04:59:02;;;;;;;1203.53;102.50;;;;;;;-142.57;100.00;61215.63;4867932;29;20045;-89
2022/10/24 05:01:34;;;;;;;408.05;63.63;;;;;;;-142.57;100.00;61215.63;4889767;29;20052;-88
2022/10/24 05:04:00;;;;;;;331.10;63.08;;;;;;;-142.57;100.00;61215.63;4885565;29;20049;-87
2022/10/24 05:06:25;;;;;;;477.95;63.50;;;;;;;-142.57;100.00;61215.63;4881933;29;20115;-85
2022/10/24 05:08:51;;;;;;;290.38;61.88;;;;;;;-142.57;100.00;61215.63;4882311;29;20048;-86
2022/10/24 05:11:17;;;;;;;288.42;60.65;;;;;;;-142.57;100.00;61215.63;4881919;29;20036;-88
2022/10/24 05:13:42;;;;;;;771.30;84.90;;;;;;;-142.57;100.00;61215.63;4885425;29;20037;-89
2022/10/24 05:16:08;;;;;;;633.50;72.55;;;;;;;-142.57;100.00;61215.63;4884963;29;20138;-88
2022/10/24 05:18:33;;;;;;;690.53;80.25;;;;;;;-142.57;100.00;61215.63;4885967;29;20182;-89
2022/10/24 05:21:00;;;;;;;448.92;67.68;;;;;;;-142.57;100.00;61215.63;4884135;29;20125;-87
2022/10/24 05:23:26;;;;;;;354.95;63.97;;;;;;;-142.57;100.00;61215.63;4886939;29;20041;-88
2022/10/24 05:25:52;;;;;;;783.28;86.53;;;;;;;-142.57;100.00;61215.63;4888621;29;20060;-91
2022/10/24 05:28:18;;;;;;;504.17;71.32;;;;;;;-142.57;100.00;61215.63;4886947;29;20044;-88
2022/10/24 05:30:43;;;;;;;825.33;84.30;;;;;;;-142.57;100.00;61215.63;4884410;29;20032;-88
2022/10/24 05:33:10;;;;;;;450.35;71.43;;;;;;;-142.57;100.00;61215.63;4885192;29;20499;-90
2022/10/24 05:35:37;;;;;;;607.92;74.70;;;;;;;-142.57;100.00;61215.63;4885514;29;20041;-88
2022/10/24 05:38:06;;;;;;;878.15;88.20;;;;;;;-142.57;100.00;61215.63;4890232;29;20112;-91
2022/10/24 05:40:31;;;;;;;339.63;64.00;;;;;;;-142.57;100.00;61215.63;4903056;29;20036;-90
2022/10/24 05:42:58;;;;;;;586.58;73.13;;;;;;;-142.57;100.00;61215.63;4927077;29;20028;-90
2022/10/24 05:45:26;;;;;;;426.33;66.53;;;;;;;-142.57;100.00;61215.63;4937217;29;20014;-89
2022/10/24 05:47:54;;;;;;;535.75;74.70;;;;;;;-142.57;100.00;61215.63;4941356;29;20032;-90
2022/10/24 05:50:20;;;;;;;477.02;69.70;;;;;;;-142.57;100.00;61215.63;4943779;29;20028;-87
2022/10/24 05:52:46;;;;;;;687.10;79.18;;;;;;;-142.57;100.00;61215.63;4936055;29;20051;-89
2022/10/24 05:55:12;;;;;;;669.97;80.35;;;;;;;-142.57;100.00;61215.63;4923392;29;20040;-88
2022/10/24 05:57:38;;;;;;;868.72;97.15;;;;;;;-142.57;100.00;61215.63;4905735;29;20115;-91
2022/10/24 06:00:11;;;;;;;278.58;64.35;;;;;;;-142.57;100.00;61215.63;4923086;29;20048;-90
2022/10/24 06:02:43;;;;;;;419.15;69.03;;;;;;;-142.57;100.00;61215.63;4924825;29;20059;-90
2022/10/24 06:05:15;;;;;;;461.02;75.57;;;;;;;-142.57;100.00;61215.63;4923256;29;20485;-89
2022/10/24 06:07:41;;;;;;;737.05;84.80;;;;;;;-142.57;100.00;61215.63;4927395;29;20044;-90
2022/10/24 06:10:08;;;;;;;457.25;72.85;;;;;;;-142.57;100.00;61215.63;4921237;29;20115;-88
2022/10/24 06:12:36;;;;;;;564.80;78.40;;;;;;;-142.57;100.00;61215.63;4921812;29;20039;-88
2022/10/24 06:15:04;;;;;;;669.55;86.68;;;;;;;-142.57;100.00;61215.63;4923463;29;20040;-89
2022/10/24 06:17:30;;;;;;;556.17;76.82;;;;;;;-142.57;100.00;61215.63;4924081;29;20409;-92
2022/10/24 10:35:23;;;;;;;46.58;27.17;;;;;;;-142.57;100.00;61215.63;5324430;23;19977;-89
2022/10/24 10:38:04;;;;;;;42.72;24.88;;;;;;;-142.57;100.00;61215.63;4917694;29;20044;-87
2022/10/24 10:40:33;;;;;;;41.03;23.08;;;;;;;-142.57;100.00;61215.63;4920016;29;20600;-90
2022/10/24 10:43:50;;;;;;;37.08;24.75;;;;;;;-142.57;100.00;61215.63;4919532;29;20033;-89
2022/10/24 10:46:20;;;;;;;42.13;26.20;;;;;;;-142.57;100.00;61215.63;4917969;29;20536;-88
2022/10/24 10:49:21;;;;;;;39.67;25.50;;;;;;;-142.57;100.00;61215.63;4919842;29;20096;-87
2022/10/24 10:51:54;;;;;;;45.95;26.48;;;;;;;-142.57;100.00;61215.63;4918648;29;20044;-86
2022/10/24 10:54:23;;;;;;;41.05;26.08;;;;;;;-142.57;100.00;61215.63;4918152;29;20053;-87
2022/10/24 11:00:45;;;;;;;40.90;24.77;;;;;;;-142.57;100.00;61215.63;4891417;29;20053;-88
2022/10/24 11:03:38;;;;;;;41.05;25.08;;;;;;;-142.57;100.00;61215.63;4893954;29;20057;-88
2022/10/24 11:06:31;;;;;;;46.17;26.00;;;;;;;-142.57;100.00;61215.63;4893611;29;20049;-88
2022/10/24 11:09:28;;;;;;;47.88;27.30;;;;;;;-142.57;100.00;61215.63;4880059;29;20028;-90
2022/10/24 11:12:26;;;;;;;43.17;26.50;;;;;;;-142.57;100.00;61215.63;4899096;29;20025;-91
2022/10/24 11:15:08;;;;;;;49.63;26.83;;;;;;;-142.57;100.00;61215.63;4895125;29;20037;-90
2022/10/24 11:17:49;;;;;;;48.00;26.35;;;;;;;-142.57;100.00;61215.63;4894124;29;20052;-91
2022/10/24 11:20:27;;;;;;;46.78;26.77;;;;;;;-142.57;100.00;61215.63;4901616;29;20045;-89
2022/10/24 11:26:00;;;;;;;46.97;25.73;;;;;;;-142.57;100.00;61215.63;4806007;27;20044;-90
2022/10/24 11:31:56;;;;;;;41.10;23.88;;;;;;;-142.57;100.00;61215.63;4903418;29;20069;-91
2022/10/24 11:35:22;;;;;;;;;;;;;;;;;;;;;
2022/10/24 11:37:58;;;;;;;40.85;24.23;;;;;;;-142.57;100.00;61215.63;4888088;29;20061;-90
2022/10/24 11:40:28;;;;;;;44.70;27.52;;;;;;;-142.57;100.00;61215.63;4890699;29;20075;-88
2022/10/24 11:43:13;;;;;;;46.17;27.67;;;;;;;-142.57;100.00;61215.63;4892900;29;20029;-90
2022/10/24 11:45:46;;;;;;;43.10;26.45;;;;;;;-142.57;100.00;61215.63;4879889;29;20051;-90
2022/10/24 11:48:33;;;;;;;47.55;26.17;;;;;;;-142.57;100.00;61215.63;4890987;29;20105;-90
2022/10/24 11:51:37;;;;;;;48.08;26.90;;;;;;;-142.57;100.00;61215.63;4871860;29;20037;-89
2022/10/24 11:54:54;;;;;;;44.65;27.02;;;;;;;-142.57;100.00;61215.63;4885288;29;20073;-87
2022/10/24 11:57:30;;;;;;;48.63;25.67;;;;;;;-142.57;100.00;61215.63;4845239;29;20057;-90
2022/10/24 11:59:58;;;;;;;40.67;25.02;;;;;;;-142.57;100.00;61215.63;4876909;29;20029;-89
2022/10/24 12:02:43;;;;;;;42.17;23.63;;;;;;;-142.57;100.00;61215.63;4888652;29;20041;-92
2022/10/24 12:05:45;;;;;;;34.83;18.65;;;;;;;-142.57;100.00;61215.63;4893592;29;20040;-92
2022/10/24 12:08:59;;;;;;;28.37;9.93;;;;;;;-142.57;100.00;61215.63;4892161;29;20056;-92
2022/10/24 12:12:01;;;;;;;20.23;6.65;;;;;;;-142.57;100.00;61215.63;4872492;29;20041;-89
2022/10/24 12:14:42;;;;;;;27.40;6.78;;;;;;;-142.57;100.00;61215.63;4891067;29;20090;-90
2022/10/24 12:17:37;;;;;;;22.60;6.47;;;;;;;-142.57;100.00;61215.63;4895161;29;20040;-88
2022/10/24 12:20:37;;;;;;;22.42;6.10;;;;;;;-142.57;100.00;61215.63;4880420;29;20052;-91
2022/10/24 12:23:40;;;;;;;26.85;5.78;;;;;;;-142.57;100.00;61215.63;4867645;29;20077;-92
2022/10/24 12:26:31;;;;;;;27.98;6.13;;;;;;;-142.57;100.00;61215.63;4894740;29;20088;-93
2022/10/24 12:32:12;;;;;;;28.38;5.88;;;;;;;-142.57;100.00;61215.63;4452282;27;20057;-91
2022/10/24 12:34:43;;;;;;;18.00;5.57;;;;;;;-142.57;100.00;61215.63;4885529;29;20049;-90
2022/10/24 12:37:18;;;;;;;16.60;5.55;;;;;;;-142.57;100.00;61215.63;4883691;29;20572;-90
2022/10/24 12:39:53;;;;;;;36.10;5.40;;;;;;;-142.57;100.00;61215.63;4886445;29;20041;-92
2022/10/24 12:42:18;;;;;;;19.85;5.60;;;;;;;-142.57;100.00;61215.63;4889513;29;20041;-91
2022/10/24 12:44:52;;;;;;;26.23;6.45;;;;;;;-142.57;100.00;61215.63;4883681;29;20464;-88
2022/10/24 12:47:32;;;;;;;26.77;6.05;;;;;;;-142.57;100.00;61215.63;4878635;29;20029;-89
2022/10/24 12:50:20;;;;;;;21.25;6.00;;;;;;;-142.57;100.00;61215.63;4880924;29;20056;-89
2022/10/24 12:52:45;;;;;;;23.83;5.90;;;;;;;-142.57;100.00;61215.63;4865278;29;20510;-88
2022/10/24 12:55:35;;;;;;;24.42;5.40;;;;;;;-142.57;100.00;61215.63;4881466;29;20037;-89
2022/10/24 12:58:20;;;;;;;26.27;6.45;;;;;;;23.35;100.00;100559.75;4882210;29;20096;-87
2022/10/24 13:00:58;;;;;;;30.20;6.80;;;;;;;-142.57;100.00;61215.63;4882730;29;20061;-89
2022/10/24 13:03:52;;;;;;;30.17;5.97;;;;;;;-142.57;100.00;61215.63;4883037;29;20084;-92
2022/10/24 13:06:55;;;;;;;24.88;5.88;;;;;;;-142.57;100.00;61215.63;4893897;29;20120;-92
2022/10/24 13:09:42;;;;;;;20.48;5.85;;;;;;;-142.57;100.00;61215.63;4883398;29;20507;-88
2022/10/24 13:12:42;;;;;;;27.10;6.18;;;;;;;-142.57;100.00;61215.63;4895014;29;20072;-90
2022/10/24 13:15:38;;;;;;;19.67;5.80;;;;;;;-142.57;100.00;61215.63;4897664;29;20036;-89
2022/10/24 13:21:32;;;;;;;24.58;6.32;;;;;;;-142.57;100.00;61215.63;4887523;29;20085;-90
2022/10/24 13:24:15;;;;;;;19.48;5.75;;;;;;;-142.57;100.00;61215.63;4896000;29;20060;-91
2022/10/24 13:27:03;;;;;;;23.55;6.15;;;;;;;-142.57;100.00;61215.63;4894266;29;20041;-91
2022/10/24 13:29:28;;;;;;;24.75;5.88;;;;;;;-142.57;100.00;61215.63;4890138;29;20040;-91
2022/10/24 13:32:14;;;;;;;27.15;6.68;;;;;;;-142.57;100.00;61215.63;4908046;29;20036;-91
2022/10/24 13:34:49;;;;;;;19.13;5.22;;;;;;;-142.57;100.00;61215.63;4913457;29;20041;-88
2022/10/24 13:37:33;;;;;;;28.92;5.90;;;;;;;-142.57;100.00;61215.63;4914118;29;20024;-90
2022/10/24 13:40:32;;;;;;;19.60;5.20;;;;;;;-142.57;100.00;61215.63;4916706;29;20074;-90
2022/10/24 13:43:18;;;;;;;28.95;6.10;;;;;;;-142.57;100.00;61215.63;4915042;29;20044;-89
2022/10/24 13:46:10;;;;;;;24.50;5.78;;;;;;;-142.57;100.00;61215.63;4904053;29;20044;-92
2022/10/24 13:48:58;;;;;;;29.17;5.90;;;;;;;-142.57;100.00;61215.63;4917482;29;20081;-92
2022/10/24 13:51:55;;;;;;;26.73;5.20;;;;;;;-142.57;100.00;61215.63;4914008;29;20044;-90
2022/10/24 13:54:37;;;;;;;26.58;5.50;;;;;;;-142.57;100.00;61215.63;4912287;29;20459;-90
2022/10/24 13:57:37;;;;;;;35.55;6.75;;;;;;;-142.57;100.00;61215.63;4912718;29;20036;-91
2022/10/24 14:00:18;;;;;;;31.10;5.78;;;;;;;-142.57;100.00;61215.63;4905877;29;20044;-91
2022/10/24 14:02:46;;;;;;;29.60;5.80;;;;;;;-142.57;100.00;61215.63;4887842;29;20073;-93
2022/10/24 14:05:36;;;;;;;29.27;5.80;;;;;;;-142.57;100.00;61215.63;4890181;29;20048;-90
2022/10/24 14:08:11;;;;;;;26.95;5.82;;;;;;;-142.57;100.00;61215.63;4890578;29;20045;-92
2022/10/24 14:10:44;;;;;;;17.83;5.30;;;;;;;-142.57;100.00;61215.63;4874723;29;20068;-89
2022/10/24 14:13:17;;;;;;;26.77;5.60;;;;;;;-142.57;100.00;61215.63;4911969;23;20036;-90
2022/10/24 14:15:53;;;;;;;28.10;5.53;;;;;;;-142.57;100.00;61215.63;4904134;29;20067;-89
2022/10/24 14:18:21;;;;;;;22.13;5.28;;;;;;;-142.57;100.00;61215.63;4876911;29;20049;-91
2022/10/24 14:21:06;;;;;;;19.20;5.78;;;;;;;-142.57;100.00;61215.63;4890431;29;20043;-93
2022/10/24 14:23:52;;;;;;;24.08;5.85;;;;;;;-142.57;100.00;61215.63;4889476;29;20189;-91
2022/10/24 14:26:25;;;;;;;28.55;6.20;;;;;;;-142.57;100.00;61215.63;4893464;29;20120;-90
2022/10/24 14:29:03;;;;;;;23.92;5.60;;;;;;;-142.57;100.00;61215.63;4893075;29;20079;-91
2022/10/24 14:31:44;;;;;;;24.85;5.93;;;;;;;-142.57;100.00;61215.63;4894484;29;20101;-90
2022/10/24 14:34:25;;;;;;;21.70;5.47;;;;;;;-142.57;100.00;61215.63;4876535;29;20052;-91
2022/10/24 14:37:24;;;;;;;27.15;5.38;;;;;;;-142.57;100.00;61215.63;4894740;29;20048;-92
2022/10/24 14:40:17;;;;;;;29.52;5.80;;;;;;;-142.57;100.00;61215.63;4891634;29;20037;-89
2022/10/24 14:42:54;;;;;;;23.52;5.78;;;;;;;-142.57;100.00;61215.63;4892048;29;20057;-92
2022/10/24 14:45:40;;;;;;;27.42;5.38;;;;;;;-142.57;100.00;61215.63;4895828;29;20057;-91
2022/10/24 14:48:27;;;;;;;30.42;5.60;;;;;;;-142.57;100.00;61215.63;4894716;29;20049;-91
2022/10/24 14:50:53;;;;;;;27.13;5.63;;;;;;;-142.57;100.00;61215.63;4878919;29;20479;-90
2022/10/24 14:53:23;;;;;;;23.75;6.25;;;;;;;-142.57;100.00;61215.63;4894188;29;20089;-90
2022/10/24 14:56:38;;;;;;;18.42;4.93;;;;;;;-142.57;100.00;61215.63;4882666;29;20064;-90
2022/10/24 14:59:35;;;;;;;20.25;5.53;;;;;;;-142.57;100.00;61215.63;4895616;29;20041;-90
2022/10/24 15:05:33;;;;;;;17.55;5.18;;;;;;;-142.57;100.00;61215.63;4894670;29;20048;-90
2022/10/24 15:08:10;;;;;;;18.92;5.25;;;;;;;-142.57;100.00;61215.63;4897421;29;20132;-90
2022/10/24 15:10:44;;;;;;;23.70;5.55;;;;;;;-142.57;100.00;61215.63;4892596;29;20041;-91
2022/10/24 15:13:15;;;;;;;22.15;5.50;;;;;;;-142.57;100.00;61215.63;4883392;29;20041;-89
2022/10/24 15:15:47;;;;;;;23.42;5.47;;;;;;;-142.57;100.00;61215.63;4873687;29;20037;-90
2022/10/24 15:18:31;;;;;;;22.23;5.17;;;;;;;-142.57;100.00;61215.63;4873761;29;20068;-89
2022/10/24 15:21:18;;;;;;;16.65;5.03;;;;;;;-142.57;100.00;61215.63;4878003;29;20042;-90
2022/10/24 15:23:47;;;;;;;19.00;5.50;;;;;;;-142.57;100.00;61215.63;4877546;29;20049;-89
2022/10/24 15:26:27;;;;;;;24.02;5.78;;;;;;;-142.57;100.00;61215.63;4874307;29;20101;-91
2022/10/24 15:29:02;;;;;;;20.70;5.75;;;;;;;-142.57;100.00;61215.63;4874508;29;20059;-86
2022/10/24 15:31:29;;;;;;;23.05;5.70;;;;;;;-142.57;100.00;61215.63;4874646;29;20559;-88
2022/10/24 15:33:55;;;;;;;27.40;5.88;;;;;;;-142.57;100.00;61215.63;4871769;29;20052;-85
2022/10/24 15:36:21;;;;;;;24.27;6.15;;;;;;;-142.57;100.00;61215.63;4869778;29;20471;-88
2022/10/24 15:38:48;;;;;;;24.58;5.47;;;;;;;-142.57;100.00;61215.63;4880582;29;20033;-87
2022/10/24 15:41:14;;;;;;;28.75;6.45;;;;;;;-142.57;100.00;61215.63;4883440;29;20347;-88
2022/10/24 15:43:40;;;;;;;22.33;5.70;;;;;;;-142.57;100.00;61215.63;4883026;29;20032;-90
2022/10/24 15:46:05;;;;;;;26.75;5.45;;;;;;;-142.57;100.00;61215.63;4882486;29;20033;-88
2022/10/24 15:48:31;;;;;;;20.20;5.47;;;;;;;-142.57;100.00;61215.63;4876539;29;20054;-88
2022/10/24 15:51:25;;;;;;;32.28;6.25;;;;;;;-142.57;100.00;61215.63;4881697;29;20024;-90
2022/10/24 15:54:02;;;;;;;26.35;5.03;;;;;;;-142.57;100.00;61215.63;4871829;29;20053;-87
2022/10/24 15:56:30;;;;;;;23.92;5.78;;;;;;;-142.57;100.00;61215.63;4869925;29;20053;-86
2022/10/24 15:58:56;;;;;;;29.10;5.88;;;;;;;-142.57;100.00;61215.63;4875222;29;20041;-87
2022/10/24 16:01:29;;;;;;;21.45;5.25;;;;;;;-142.57;100.00;61215.63;4881151;29;20476;-85
2022/10/24 16:03:55;;;;;;;18.25;5.60;;;;;;;-142.57;100.00;61215.63;4880752;29;20132;-85
2022/10/24 16:06:21;;;;;;;17.40;5.22;;;;;;;-142.57;100.00;61215.63;4872230;29;20085;-89
2022/10/24 16:08:47;;;;;;;22.65;5.40;;;;;;;-142.57;100.00;61215.63;4869546;29;20049;-88
2022/10/24 16:11:13;;;;;;;22.35;5.88;;;;;;;-142.57;100.00;61215.63;4871171;29;20040;-85